Wauneta, NE

4:10 PM MDT on August 04, 2015 (GMT -0600)
APRSWXNET | | Change Station
CLOSE
Current Station
Personal Weather Station
Location: Stratton, NE
Elevation: 3190 ft
Nearby Weather Stations

Elev 3190 ft 40.26 °N, 101.28 °W | Updated 25 minutes ago

Overcast
Overcast
65 °F
Feels Like 65 °F
N
0
Wind Variable Wind from ESE
Gusts 5.0 mph

Today
High -- | Low -- °F
--% Chance of Precip.
Yesterday
High -- | Low -- °F
Precip. -- in
5:45 AM 7:57 PM
Waning Gibbous, 74% visible
Pressure 29.92 in
Visibility 10.0 miles
Clouds Overcast 11000 ft
Dew Point 64 °F
Humidity 97%
Rainfall in
Snow Depth Not available.
UV 2 out of 12
Pollen 7.90 out of 12
Air Quality Not available.
Flu Activity Not available.
METAR KIML 042153Z AUTO 00000KT 10SM OVC110 20/16 A2999 RMK AO2 SLP132 T02000156

More Conditions Fewer Conditions

Pressure 29.92 in
Visibility 10.0 miles
Clouds Overcast 11000 ft
Dew Point 64 °F
Humidity 97%
Rainfall in
Snow Depth Not available.
UV 2 out of 12
Pollen 7.90 out of 12
Air Quality Not available.
Flu Activity Not available.
METAR KIML 042153Z AUTO 00000KT 10SM OVC110 20/16 A2999 RMK AO2 SLP132 T02000156

More Conditions Fewer Conditions

10-Day Weather Forecast

×

Almanac

Astronomy

Aug. 04, 2015 Rise Set
Actual Time
Civil Twilight
Nautical Twilight
Astronomical Twilight
Moon
Length of Visible Light
Length of Day
Tomorrow will be .
, % of the Moon is Illuminated

Today's Extremes

State Highs State Lows

Community

WunderPhotos

Upload Photos

1,844,002 photos uploaded!

WunderBlogs® & News

Nearby

Air Quality

  Air Quality AQ Index Pollutant
Not available.

Snow Depth

Station Depth Elevation

Earthquake Activity

City Distance Mag. Time & Date
Minimum magnitude displayed is 2.5.

Coastal Water Temperatures

Place Temperature

Stations

Nearby Weather Stations

Station Location Temp. Windchill Dew Point Humidity Wind Precip. Elev Updated Type